createdAt,value
2019-04-03T00:01:34.413Z,100.00
2019-04-03T00:04:04.671Z,100.00
2019-04-03T00:06:35.039Z,100.00
2019-04-03T00:09:06.584Z,100.00
2019-04-03T00:11:35.806Z,100.00
2019-04-03T00:14:04.067Z,100.00
2019-04-03T00:16:32.368Z,100.00
2019-04-03T00:19:00.525Z,100.00
2019-04-03T00:21:28.834Z,100.00
2019-04-03T00:23:57.156Z,100.00
2019-04-03T00:26:25.298Z,100.00
2019-04-03T00:28:53.442Z,100.00
2019-04-03T00:31:23.288Z,100.00
2019-04-03T00:33:53.422Z,100.00
2019-04-03T00:36:23.317Z,100.00
2019-04-03T00:38:52.584Z,100.00
2019-04-03T00:41:24.132Z,100.00
2019-04-03T00:43:54.049Z,100.00
2019-04-03T00:46:22.806Z,100.00
2019-04-03T00:48:55.342Z,100.00
2019-04-03T00:51:22.688Z,100.00
2019-04-03T00:53:51.046Z,100.00
2019-04-03T00:56:19.338Z,100.00
2019-04-03T00:58:47.718Z,100.00
2019-04-03T01:01:15.976Z,100.00
2019-04-03T01:03:44.161Z,100.00
2019-04-03T01:06:13.953Z,100.00
2019-04-03T01:08:42.136Z,100.00
2019-04-03T01:11:10.275Z,100.00
2019-04-03T01:13:38.468Z,100.00
2019-04-03T01:16:06.619Z,100.00
2019-04-03T01:18:35.429Z,100.00
2019-04-03T01:21:06.260Z,100.00
2019-04-03T01:23:37.201Z,100.00
2019-04-03T01:26:04.304Z,100.00
2019-04-03T01:28:32.462Z,100.00
2019-04-03T01:31:00.616Z,100.00
2019-04-03T01:33:28.845Z,100.00
2019-04-03T01:35:56.993Z,100.00
2019-04-03T01:38:25.166Z,100.00
2019-04-03T01:40:53.317Z,100.00
2019-04-03T01:43:23.132Z,100.00
2019-04-03T01:45:51.664Z,100.00
2019-04-03T01:48:19.815Z,100.00
2019-04-03T01:50:47.988Z,100.00
2019-04-03T01:53:16.141Z,100.00
2019-04-03T01:55:44.571Z,100.00
2019-04-03T01:58:12.799Z,100.00
2019-04-03T02:00:41.641Z,100.00
2019-04-03T02:03:10.301Z,100.00
2019-04-03T02:05:39.402Z,99.58
2019-04-03T02:08:07.619Z,99.34
2019-04-03T02:10:36.064Z,99.94
2019-04-03T02:13:04.232Z,100.00
2019-04-03T02:15:32.406Z,100.00
2019-04-03T02:18:00.546Z,100.00
2019-04-03T02:20:28.735Z,100.00
2019-04-03T02:22:59.646Z,100.00
2019-04-03T02:25:27.771Z,100.00
2019-04-03T02:27:55.962Z,100.00
2019-04-03T02:30:24.111Z,100.00
2019-04-03T02:32:55.211Z,100.00
2019-04-03T02:35:22.510Z,100.00
2019-04-03T02:37:50.962Z,100.00
2019-04-03T02:40:19.342Z,100.00
2019-04-03T02:42:47.528Z,100.00
2019-04-03T02:45:15.675Z,100.00
2019-04-03T02:47:43.911Z,100.00
2019-04-03T02:50:15.647Z,100.00
2019-04-03T02:52:43.991Z,100.00
2019-04-03T02:55:12.415Z,99.70
2019-04-03T02:57:40.674Z,100.00
2019-04-03T03:00:10.103Z,100.00
2019-04-03T03:02:38.248Z,100.00
2019-04-03T03:05:06.433Z,100.00
2019-04-03T03:07:36.416Z,100.00
2019-04-03T03:10:05.989Z,100.00
2019-04-03T03:12:36.362Z,100.00
2019-04-03T03:15:06.074Z,100.00
2019-04-03T03:17:36.300Z,100.00
2019-04-03T03:20:07.684Z,100.00
2019-04-03T03:22:39.052Z,100.00
2019-04-03T03:25:08.671Z,100.00
2019-04-03T03:27:40.747Z,100.00
2019-04-03T03:30:30.353Z,100.00
2019-04-03T03:32:38.743Z,100.00
2019-04-03T03:35:14.485Z,100.00
2019-04-03T03:37:38.658Z,100.00
2019-04-03T03:40:08.091Z,100.00
2019-04-03T03:42:36.411Z,100.00
2019-04-03T03:45:05.786Z,100.00
2019-04-03T03:47:37.042Z,100.00
2019-04-03T03:50:07.206Z,100.00
2019-04-03T03:52:38.329Z,100.00
2019-04-03T03:55:08.478Z,100.00
2019-04-03T03:57:40.162Z,100.00
2019-04-03T04:00:09.324Z,100.00
2019-04-03T04:02:40.917Z,100.00
2019-04-03T04:05:10.695Z,100.00
2019-04-03T04:07:38.782Z,100.00
2019-04-03T04:10:07.396Z,100.00
2019-04-03T04:12:39.754Z,100.00
2019-04-03T04:15:08.780Z,100.00
2019-04-03T04:17:37.214Z,100.00
2019-04-03T04:20:06.320Z,100.00
2019-04-03T04:22:34.957Z,100.00
2019-04-03T04:25:05.289Z,100.00
2019-04-03T04:27:37.358Z,100.00
2019-04-03T04:30:05.200Z,100.00
2019-04-03T04:32:33.411Z,100.00
2019-04-03T04:35:01.554Z,100.00
2019-04-03T04:37:30.096Z,100.00
2019-04-03T04:39:59.732Z,100.00
2019-04-03T04:42:28.493Z,100.00
2019-04-03T04:44:56.816Z,100.00
2019-04-03T04:47:25.694Z,100.00
2019-04-03T04:49:54.342Z,100.00
2019-04-03T04:52:22.688Z,100.00
2019-04-03T04:54:51.274Z,100.00
2019-04-03T04:57:19.586Z,100.00
2019-04-03T04:59:47.795Z,100.00
2019-04-03T05:02:15.961Z,100.00
2019-04-03T05:04:44.443Z,100.00
2019-04-03T05:07:13.030Z,100.00
2019-04-03T05:09:42.272Z,100.00
2019-04-03T05:12:10.976Z,100.00
2019-04-03T05:14:41.176Z,100.00
2019-04-03T05:17:09.799Z,100.00
2019-04-03T05:19:38.031Z,100.00
2019-04-03T05:22:06.488Z,100.00
2019-04-03T05:24:34.625Z,100.00
2019-04-03T05:27:03.633Z,100.00
2019-04-03T05:29:34.207Z,100.00
2019-04-03T05:32:02.332Z,100.00
2019-04-03T05:34:30.533Z,100.00
2019-04-03T05:36:58.684Z,100.00
2019-04-03T05:39:26.866Z,100.00
2019-04-03T05:41:55.235Z,100.00
2019-04-03T05:44:24.104Z,100.00
2019-04-03T05:46:52.621Z,100.00
2019-04-03T05:49:20.765Z,100.00
2019-04-03T05:51:49.196Z,100.00
2019-04-03T05:54:17.525Z,100.00
2019-04-03T05:56:45.793Z,100.00
2019-04-03T05:59:14.055Z,100.00
2019-04-03T06:01:46.102Z,100.00
2019-04-03T06:04:12.731Z,100.00
2019-04-03T06:06:40.975Z,100.00
2019-04-03T06:09:09.327Z,100.00
2019-04-03T06:11:39.866Z,100.00
2019-04-03T06:14:08.768Z,100.00
2019-04-03T06:16:37.576Z,100.00
2019-04-03T06:19:07.189Z,100.00
2019-04-03T06:21:35.600Z,100.00
2019-04-03T06:24:04.043Z,99.81
2019-04-03T06:26:32.301Z,100.00
2019-04-03T06:29:00.728Z,100.00
2019-04-03T06:31:29.077Z,100.00
2019-04-03T06:33:57.291Z,100.00
2019-04-03T06:36:26.567Z,100.00
2019-04-03T06:38:56.063Z,98.99
2019-04-03T06:41:24.987Z,100.00
2019-04-03T06:43:54.494Z,99.26
2019-04-03T06:46:23.145Z,98.12
2019-04-03T06:48:51.532Z,97.95
2019-04-03T06:51:19.902Z,97.75
2019-04-03T06:53:48.466Z,98.43
2019-04-03T06:56:16.724Z,97.81
2019-04-03T06:58:45.184Z,97.06
2019-04-03T07:01:14.182Z,98.06
2019-04-03T07:03:42.445Z,97.56
2019-04-03T07:06:11.513Z,98.25
2019-04-03T07:08:41.173Z,97.79
2019-04-03T07:11:22.370Z,97.32
2019-04-03T07:13:40.508Z,95.84
2019-04-03T07:16:09.293Z,95.24
2019-04-03T07:18:37.640Z,95.03
2019-04-03T07:21:05.798Z,94.09
2019-04-03T07:23:34.366Z,92.51
2019-04-03T07:26:02.934Z,91.99
2019-04-03T07:28:32.701Z,91.83
2019-04-03T07:31:01.001Z,91.17
2019-04-03T07:33:29.468Z,90.70
2019-04-03T07:35:57.925Z,88.72
2019-04-03T07:38:26.232Z,87.51
2019-04-03T07:40:54.415Z,85.39
2019-04-03T07:43:22.661Z,84.82
2019-04-03T07:45:50.958Z,84.81
2019-04-03T07:48:19.120Z,83.80
2019-04-03T07:50:47.447Z,84.49
2019-04-03T07:53:15.653Z,83.49
2019-04-03T07:55:44.410Z,83.01
2019-04-03T07:58:13.059Z,82.55
2019-04-03T08:00:41.411Z,81.27
2019-04-03T08:03:09.695Z,82.11
2019-04-03T08:05:37.850Z,83.47
2019-04-03T08:08:06.005Z,82.61
2019-04-03T08:10:37.133Z,81.47
2019-04-03T08:13:06.487Z,81.09
2019-04-03T08:15:35.287Z,80.94
2019-04-03T08:18:03.437Z,81.19
2019-04-03T08:20:31.608Z,80.06
2019-04-03T08:22:59.840Z,78.02
2019-04-03T08:25:28.048Z,78.12
2019-04-03T08:27:56.667Z,78.48
2019-04-03T08:30:24.887Z,83.11
2019-04-03T08:32:53.136Z,81.30
2019-04-03T08:35:23.386Z,76.59
2019-04-03T08:37:51.370Z,77.68
2019-04-03T08:40:20.427Z,76.98
2019-04-03T08:42:49.937Z,76.44
2019-04-03T08:45:20.956Z,79.76
2019-04-03T08:47:48.234Z,77.64
2019-04-03T08:50:18.132Z,78.20
2019-04-03T08:52:46.445Z,77.75
2019-04-03T08:55:15.107Z,78.09
2019-04-03T08:57:45.960Z,75.59
2019-04-03T09:00:14.531Z,76.22
2019-04-03T09:02:43.828Z,75.02
2019-04-03T09:05:14.490Z,73.70
2019-04-03T09:07:43.024Z,72.94
2019-04-03T09:10:12.211Z,72.85
2019-04-03T09:12:40.500Z,73.29
2019-04-03T09:15:10.529Z,72.97
2019-04-03T09:17:39.105Z,72.33
2019-04-03T09:20:08.824Z,72.01
2019-04-03T09:22:37.141Z,72.06
2019-04-03T09:25:05.977Z,72.64
2019-04-03T09:27:34.131Z,72.88
2019-04-03T09:30:02.943Z,74.14
2019-04-03T09:32:31.213Z,74.59
2019-04-03T09:35:01.424Z,73.27
2019-04-03T09:37:29.736Z,73.36
2019-04-03T09:40:01.011Z,72.69
2019-04-03T09:42:32.966Z,70.88
2019-04-03T09:45:02.173Z,71.84
2019-04-03T09:47:33.074Z,77.13
2019-04-03T09:50:00.711Z,75.15
2019-04-03T09:52:39.530Z,73.97
2019-04-03T09:55:00.307Z,72.62
2019-04-03T09:57:31.348Z,72.69
2019-04-03T09:59:59.301Z,74.04
2019-04-03T10:02:27.676Z,74.47
2019-04-03T10:04:58.621Z,75.53
2019-04-03T10:07:26.573Z,75.85
2019-04-03T10:09:54.936Z,76.41
2019-04-03T10:12:23.447Z,78.49
2019-04-03T10:14:52.071Z,79.77
2019-04-03T10:17:20.971Z,79.60
2019-04-03T10:19:49.297Z,80.85
2019-04-03T10:22:17.651Z,82.19
2019-04-03T10:24:45.953Z,78.91
2019-04-03T10:27:14.118Z,81.17
2019-04-03T10:29:42.453Z,83.48
2019-04-03T10:32:10.768Z,82.13
2019-04-03T10:34:38.960Z,82.18
2019-04-03T10:37:07.211Z,83.54
2019-04-03T10:39:35.585Z,80.77
2019-04-03T10:42:03.891Z,82.29
2019-04-03T10:44:32.207Z,82.20
2019-04-03T10:47:00.436Z,81.08
2019-04-03T10:49:30.028Z,79.41
2019-04-03T10:51:58.669Z,77.79
2019-04-03T10:54:27.287Z,79.38
2019-04-03T10:56:55.903Z,78.04
2019-04-03T10:59:24.207Z,77.11
2019-04-03T11:01:52.385Z,78.04
2019-04-03T11:04:20.691Z,78.04
2019-04-03T11:06:48.869Z,78.48
2019-04-03T11:09:17.177Z,77.18
2019-04-03T11:11:45.553Z,79.67
2019-04-03T11:14:14.208Z,75.94
2019-04-03T11:16:45.993Z,77.87
2019-04-03T11:19:12.896Z,75.67
2019-04-03T11:21:43.240Z,74.32
2019-04-03T11:24:11.313Z,73.93
2019-04-03T11:26:39.728Z,74.76
2019-04-03T11:29:09.921Z,74.52
2019-04-03T11:31:41.480Z,76.88
2019-04-03T11:34:08.293Z,76.05
2019-04-03T11:36:36.494Z,75.59
2019-04-03T11:39:13.546Z,75.89
2019-04-03T11:41:38.511Z,74.53
2019-04-03T11:44:06.678Z,75.08
2019-04-03T11:46:35.450Z,77.51
2019-04-03T11:49:04.522Z,75.28
2019-04-03T11:51:34.264Z,76.30
2019-04-03T11:54:02.721Z,75.50
2019-04-03T11:56:31.342Z,77.08
2019-04-03T11:58:59.904Z,74.12
2019-04-03T12:01:28.814Z,76.36
2019-04-03T12:03:57.217Z,74.70
2019-04-03T12:06:25.475Z,75.10
2019-04-03T12:08:53.736Z,74.47
2019-04-03T12:11:22.687Z,78.08
2019-04-03T12:13:51.410Z,78.81
2019-04-03T12:16:20.040Z,78.25
2019-04-03T12:18:48.456Z,79.39
2019-04-03T12:21:18.868Z,81.16
2019-04-03T12:23:46.968Z,79.38
2019-04-03T12:26:15.476Z,77.51
2019-04-03T12:28:43.853Z,79.14
2019-04-03T12:31:12.802Z,79.35
2019-04-03T12:33:52.744Z,79.10
2019-04-03T12:36:13.413Z,78.65
2019-04-03T12:38:41.287Z,77.98
2019-04-03T12:41:10.656Z,76.26
2019-04-03T12:43:39.590Z,76.24
2019-04-03T12:46:11.897Z,78.48
2019-04-03T12:48:40.500Z,78.59
2019-04-03T12:51:09.043Z,79.13
2019-04-03T12:53:37.838Z,79.32
2019-04-03T12:56:06.548Z,79.70
2019-04-03T12:58:36.395Z,80.82
2019-04-03T13:01:05.211Z,84.61
2019-04-03T13:03:36.716Z,90.12
2019-04-03T13:06:04.988Z,91.80
2019-04-03T13:08:33.536Z,95.69
2019-04-03T13:11:02.241Z,97.86
2019-04-03T13:13:30.460Z,99.63
2019-04-03T13:15:58.888Z,100.00
2019-04-03T13:18:27.220Z,100.00
2019-04-03T13:20:55.399Z,100.00
2019-04-03T13:23:23.558Z,100.00
2019-04-03T13:25:53.193Z,100.00
2019-04-03T13:28:21.840Z,100.00
2019-04-03T13:30:49.999Z,100.00
2019-04-03T13:33:18.140Z,100.00
2019-04-03T13:35:48.357Z,100.00
2019-04-03T13:38:17.483Z,100.00
2019-04-03T13:40:46.061Z,100.00
2019-04-03T13:43:15.462Z,100.00
2019-04-03T13:45:43.879Z,100.00
2019-04-03T13:48:13.443Z,100.00
2019-04-03T13:50:44.979Z,100.00
2019-04-03T13:53:12.740Z,100.00
2019-04-03T13:55:41.239Z,100.00
2019-04-03T13:58:10.347Z,100.00
2019-04-03T14:00:38.800Z,100.00
2019-04-03T14:03:07.035Z,100.00
2019-04-03T14:05:35.216Z,100.00
2019-04-03T14:08:06.368Z,100.00
2019-04-03T14:10:33.979Z,100.00
2019-04-03T14:13:02.237Z,100.00
2019-04-03T14:15:32.469Z,100.00
2019-04-03T14:18:00.652Z,100.00
2019-04-03T14:20:28.863Z,100.00
2019-04-03T14:22:57.038Z,100.00
2019-04-03T14:25:28.099Z,100.00
2019-04-03T14:27:55.660Z,100.00
2019-04-03T14:30:24.615Z,100.00
2019-04-03T14:32:54.672Z,100.00
2019-04-03T14:35:45.143Z,100.00
2019-04-03T14:37:53.376Z,100.00
2019-04-03T14:40:21.705Z,100.00
2019-04-03T14:42:49.902Z,100.00
2019-04-03T14:45:25.733Z,100.00
2019-04-03T14:47:54.914Z,100.00
2019-04-03T14:50:24.129Z,100.00
2019-04-03T14:52:52.511Z,100.00
2019-04-03T14:55:22.751Z,100.00
2019-04-03T14:57:53.764Z,100.00
2019-04-03T15:00:28.553Z,100.00
2019-04-03T15:02:51.178Z,100.00
2019-04-03T15:05:19.715Z,100.00
2019-04-03T15:07:50.613Z,100.00
2019-04-03T15:10:18.678Z,100.00
2019-04-03T15:12:47.235Z,100.00
2019-04-03T15:15:15.797Z,100.00
2019-04-03T15:17:44.382Z,100.00
2019-04-03T15:20:16.910Z,100.00
2019-04-03T15:22:44.133Z,100.00
2019-04-03T15:25:12.911Z,100.00
2019-04-03T15:27:42.640Z,100.00
2019-04-03T15:30:12.265Z,100.00
2019-04-03T15:32:41.166Z,100.00
2019-04-03T15:35:10.477Z,100.00
2019-04-03T15:37:41.929Z,100.00
2019-04-03T15:40:10.159Z,100.00
2019-04-03T15:42:40.567Z,100.00
2019-04-03T15:45:11.681Z,100.00
2019-04-03T15:47:45.013Z,100.00
2019-04-03T15:50:12.055Z,100.00
2019-04-03T15:52:43.140Z,100.00
2019-04-03T15:55:11.763Z,100.00
2019-04-03T15:57:40.991Z,100.00
2019-04-03T16:00:12.460Z,100.00
2019-04-03T16:02:44.495Z,100.00
2019-04-03T16:05:11.980Z,100.00
2019-04-03T16:07:41.614Z,100.00
2019-04-03T16:10:10.932Z,100.00
2019-04-03T16:12:42.932Z,100.00
2019-04-03T16:15:09.836Z,100.00
2019-04-03T16:17:39.130Z,100.00
2019-04-03T16:20:08.632Z,100.00
2019-04-03T16:22:38.455Z,100.00
2019-04-03T16:25:08.173Z,100.00
2019-04-03T16:27:36.491Z,100.00
2019-04-03T16:30:07.192Z,100.00
2019-04-03T16:32:37.681Z,100.00
2019-04-03T16:35:07.670Z,100.00
2019-04-03T16:37:36.362Z,100.00
2019-04-03T16:40:06.192Z,100.00
2019-04-03T16:42:35.014Z,100.00
2019-04-03T16:45:08.156Z,100.00
2019-04-03T16:47:34.572Z,100.00
2019-04-03T16:50:05.723Z,100.00
2019-04-03T16:52:36.247Z,100.00
2019-04-03T16:55:04.481Z,100.00
2019-04-03T16:57:32.660Z,100.00
2019-04-03T17:00:00.847Z,100.00
2019-04-03T17:02:29.957Z,100.00
2019-04-03T17:04:58.488Z,100.00
2019-04-03T17:07:26.757Z,100.00
2019-04-03T17:09:54.940Z,100.00
2019-04-03T17:12:23.278Z,100.00
2019-04-03T17:14:52.955Z,100.00
2019-04-03T17:17:22.651Z,100.00
2019-04-03T17:19:51.782Z,100.00
2019-04-03T17:22:20.492Z,100.00
2019-04-03T17:24:51.868Z,100.00
2019-04-03T17:27:19.086Z,100.00
2019-04-03T17:29:48.107Z,100.00
2019-04-03T17:32:19.575Z,100.00
2019-04-03T17:34:47.778Z,100.00
2019-04-03T17:37:19.006Z,100.00
2019-04-03T17:39:46.196Z,100.00
2019-04-03T17:42:15.266Z,100.00
2019-04-03T17:44:44.757Z,100.00
2019-04-03T17:47:13.502Z,100.00
2019-04-03T17:49:41.798Z,100.00
2019-04-03T17:52:10.165Z,100.00
2019-04-03T17:54:39.123Z,100.00
2019-04-03T17:57:07.529Z,100.00
2019-04-03T17:59:35.668Z,100.00
2019-04-03T18:02:04.095Z,100.00
2019-04-03T18:04:32.456Z,100.00
2019-04-03T18:07:00.670Z,100.00
2019-04-03T18:09:28.927Z,100.00
2019-04-03T18:11:58.031Z,100.00
2019-04-03T18:14:27.109Z,100.00
2019-04-03T18:16:55.350Z,100.00
2019-04-03T18:19:23.546Z,100.00
2019-04-03T18:22:51.006Z,100.00
2019-04-03T18:25:20.165Z,100.00
2019-04-03T18:27:48.398Z,100.00
2019-04-03T18:30:17.875Z,100.00
2019-04-03T18:32:46.689Z,100.00
2019-04-03T18:35:15.218Z,100.00
2019-04-03T18:37:43.435Z,100.00
2019-04-03T18:40:14.242Z,100.00
2019-04-03T18:42:41.932Z,100.00
2019-04-03T18:45:24.638Z,100.00
2019-04-03T18:47:46.520Z,100.00
2019-04-03T18:50:14.763Z,100.00
2019-04-03T18:52:43.429Z,100.00
2019-04-03T18:55:14.628Z,100.00
2019-04-03T18:57:42.348Z,100.00
2019-04-03T19:00:11.037Z,100.00
2019-04-03T19:02:39.293Z,100.00
2019-04-03T19:05:09.919Z,100.00
2019-04-03T19:07:38.238Z,100.00
2019-04-03T19:10:07.823Z,100.00
2019-04-03T19:12:36.318Z,100.00
2019-04-03T19:15:07.070Z,100.00
2019-04-03T19:17:35.384Z,100.00
2019-04-03T19:20:10.808Z,100.00
2019-04-03T19:22:35.079Z,100.00
2019-04-03T19:25:03.651Z,100.00
2019-04-03T19:27:33.013Z,100.00
2019-04-03T19:30:01.738Z,100.00
2019-04-03T19:32:30.344Z,100.00
2019-04-03T19:34:58.593Z,100.00
2019-04-03T19:37:26.898Z,100.00
2019-04-03T19:39:55.102Z,100.00
2019-04-03T19:42:24.177Z,100.00
2019-04-03T19:44:52.321Z,100.00
2019-04-03T19:47:20.497Z,100.00
2019-04-03T19:49:48.693Z,100.00
2019-04-03T19:52:16.925Z,100.00
2019-04-03T19:54:45.056Z,100.00
2019-04-03T19:57:13.351Z,100.00
2019-04-03T19:59:41.511Z,100.00
2019-04-03T20:02:10.251Z,100.00
2019-04-03T20:04:38.691Z,100.00
2019-04-03T20:07:07.393Z,100.00
2019-04-03T20:09:35.535Z,100.00
2019-04-03T20:12:06.816Z,100.00
2019-04-03T20:14:33.902Z,100.00
2019-04-03T20:17:02.167Z,100.00
2019-04-03T20:19:30.410Z,100.00
2019-04-03T20:21:58.618Z,100.00
2019-04-03T20:24:26.887Z,100.00
2019-04-03T20:26:55.080Z,100.00
2019-04-03T20:29:23.294Z,100.00
2019-04-03T20:31:51.473Z,100.00
2019-04-03T20:34:19.624Z,100.00
2019-04-03T20:36:50.948Z,100.00
2019-04-03T20:39:18.381Z,100.00
2019-04-03T20:41:46.601Z,100.00
2019-04-03T20:44:16.703Z,100.00
2019-04-03T20:46:44.860Z,100.00
2019-04-03T20:49:13.145Z,100.00
2019-04-03T20:51:51.430Z,100.00
2019-04-03T20:54:21.261Z,100.00
2019-04-03T20:56:57.817Z,100.00
2019-04-03T20:59:19.972Z,100.00
2019-04-03T21:01:48.221Z,100.00
2019-04-03T21:04:16.492Z,100.00
2019-04-03T21:06:44.964Z,100.00
2019-04-03T21:09:13.217Z,100.00
2019-04-03T21:11:41.342Z,100.00
2019-04-03T21:14:11.285Z,100.00
2019-04-03T21:16:41.135Z,100.00
2019-04-03T21:19:09.395Z,100.00
2019-04-03T21:21:37.540Z,100.00
2019-04-03T21:24:07.532Z,100.00
2019-04-03T21:26:38.273Z,100.00
2019-04-03T21:29:07.091Z,100.00
2019-04-03T21:31:35.396Z,100.00
2019-04-03T21:34:03.659Z,100.00
2019-04-03T21:36:31.787Z,100.00
2019-04-03T21:38:59.948Z,100.00
2019-04-03T21:41:28.185Z,100.00
2019-04-03T21:43:59.729Z,100.00
2019-04-03T21:46:26.635Z,100.00
2019-04-03T21:48:57.044Z,100.00
2019-04-03T21:51:25.200Z,100.00
2019-04-03T21:53:55.773Z,100.00
2019-04-03T21:56:23.497Z,100.00
2019-04-03T21:58:51.800Z,100.00
2019-04-03T22:01:25.209Z,100.00
2019-04-03T22:03:53.658Z,100.00
2019-04-03T22:06:21.869Z,100.00
2019-04-03T22:08:51.591Z,100.00
2019-04-03T22:11:20.030Z,100.00
2019-04-03T22:13:49.752Z,100.00
2019-04-03T22:16:19.475Z,100.00
2019-04-03T22:18:47.890Z,100.00
2019-04-03T22:21:16.117Z,100.00
2019-04-03T22:23:44.761Z,100.00
2019-04-03T22:26:12.874Z,100.00
2019-04-03T22:28:41.321Z,100.00
2019-04-03T22:31:09.448Z,100.00
2019-04-03T22:33:37.659Z,100.00
2019-04-03T22:36:05.789Z,100.00
2019-04-03T22:38:36.971Z,100.00
2019-04-03T22:41:04.162Z,100.00
2019-04-03T22:43:32.330Z,100.00
2019-04-03T22:46:00.706Z,100.00
2019-04-03T22:48:29.239Z,100.00
2019-04-03T22:50:57.609Z,100.00
2019-04-03T22:53:25.766Z,100.00
2019-04-03T22:55:53.938Z,100.00
2019-04-03T22:58:22.202Z,100.00
2019-04-03T23:00:50.562Z,100.00
2019-04-03T23:03:18.675Z,100.00
2019-04-03T23:05:47.950Z,100.00
2019-04-03T23:08:17.016Z,100.00
2019-04-03T23:10:45.274Z,100.00
2019-04-03T23:13:13.425Z,100.00
2019-04-03T23:15:41.624Z,100.00
2019-04-03T23:18:09.770Z,100.00
2019-04-03T23:20:38.072Z,100.00
2019-04-03T23:23:06.376Z,100.00
2019-04-03T23:25:34.678Z,100.00
2019-04-03T23:28:03.577Z,100.00
2019-04-03T23:30:31.903Z,100.00
2019-04-03T23:33:00.069Z,100.00
2019-04-03T23:35:28.407Z,100.00
2019-04-03T23:37:56.658Z,100.00
2019-04-03T23:40:25.232Z,100.00
2019-04-03T23:42:53.400Z,100.00
2019-04-03T23:45:22.987Z,100.00
2019-04-03T23:47:51.219Z,100.00
2019-04-03T23:50:20.005Z,100.00
2019-04-03T23:52:49.527Z,100.00
2019-04-03T23:55:17.737Z,100.00
2019-04-03T23:57:46.906Z,100.00
